createdAt,value
2019-05-29T00:00:41.686Z,9.30
2019-05-29T00:03:12.345Z,9.20
2019-05-29T00:05:41.934Z,9.20
2019-05-29T00:08:12.324Z,9.10
2019-05-29T00:10:42.896Z,9.00
2019-05-29T00:13:12.394Z,9.00
2019-05-29T00:15:41.928Z,9.00
2019-05-29T00:18:12.485Z,8.90
2019-05-29T00:20:41.527Z,8.80
2019-05-29T00:23:12.600Z,8.70
2019-05-29T00:25:42.166Z,8.70
2019-05-29T00:28:15.115Z,8.70
2019-05-29T00:30:44.906Z,8.60
2019-05-29T00:33:14.570Z,8.60
2019-05-29T00:35:44.401Z,8.60
2019-05-29T00:38:14.745Z,8.60
2019-05-29T00:40:44.388Z,8.50
2019-05-29T00:43:15.071Z,8.50
2019-05-29T00:45:44.989Z,8.40
2019-05-29T00:48:15.907Z,8.40
2019-05-29T00:50:45.502Z,8.30
2019-05-29T00:53:14.964Z,8.30
2019-05-29T00:55:44.376Z,8.30
2019-05-29T00:58:14.878Z,8.20
2019-05-29T01:00:44.555Z,8.20
2019-05-29T01:03:14.101Z,8.10
2019-05-29T01:05:45.092Z,8.10
2019-05-29T01:08:14.679Z,8.10
2019-05-29T01:10:44.284Z,8.10
2019-05-29T01:13:15.064Z,8.10
2019-05-29T01:15:44.741Z,8.00
2019-05-29T01:18:17.800Z,8.00
2019-05-29T01:20:47.351Z,8.00
2019-05-29T01:23:16.920Z,7.90
2019-05-29T01:25:46.360Z,7.90
2019-05-29T01:28:16.912Z,7.80
2019-05-29T01:30:46.490Z,7.80
2019-05-29T01:33:18.597Z,7.80
2019-05-29T01:35:47.340Z,7.70
2019-05-29T01:38:17.183Z,7.70
2019-05-29T01:40:46.688Z,7.70
2019-05-29T01:43:17.422Z,7.60
2019-05-29T01:45:47.033Z,7.50
2019-05-29T01:48:17.406Z,7.40
2019-05-29T01:50:47.007Z,7.40
2019-05-29T01:53:17.652Z,7.30
2019-05-29T01:55:46.514Z,7.30
2019-05-29T01:58:15.917Z,7.20
2019-05-29T02:00:45.419Z,7.10
2019-05-29T02:03:15.763Z,7.10
2019-05-29T02:05:45.307Z,7.10
2019-05-29T02:08:16.007Z,7.10
2019-05-29T02:10:45.607Z,7.10
2019-05-29T02:13:15.237Z,7.00
2019-05-29T02:15:44.719Z,7.00
2019-05-29T02:18:14.216Z,7.00
2019-05-29T02:20:43.718Z,7.00
2019-05-29T02:23:13.275Z,7.00
2019-05-29T02:25:42.833Z,7.00
2019-05-29T02:28:12.360Z,7.00
2019-05-29T02:30:41.833Z,7.00
2019-05-29T02:33:11.357Z,7.00
2019-05-29T02:35:40.893Z,7.00
2019-05-29T02:38:10.349Z,6.90
2019-05-29T02:40:42.695Z,6.80
2019-05-29T02:43:12.122Z,6.80
2019-05-29T02:45:53.657Z,6.80
2019-05-29T02:48:12.996Z,6.70
2019-05-29T02:50:42.767Z,6.70
2019-05-29T02:53:12.221Z,6.70
2019-05-29T02:55:41.693Z,6.70
2019-05-29T02:58:11.163Z,6.70
2019-05-29T03:00:54.419Z,6.70
2019-05-29T03:03:26.507Z,6.70
2019-05-29T03:05:56.868Z,6.70
2019-05-29T03:08:27.062Z,6.60
2019-05-29T03:10:57.499Z,6.60
2019-05-29T03:13:27.624Z,6.50
2019-05-29T03:16:10.491Z,6.40
2019-05-29T03:18:30.219Z,6.40
2019-05-29T03:21:00.507Z,6.40
2019-05-29T03:23:33.354Z,6.40
2019-05-29T03:26:02.135Z,6.30
2019-05-29T03:28:32.380Z,6.30
2019-05-29T03:31:02.788Z,6.30
2019-05-29T03:33:43.818Z,6.30
2019-05-29T03:36:03.529Z,6.30
2019-05-29T03:38:34.670Z,6.20
2019-05-29T03:41:05.427Z,6.20
2019-05-29T03:43:35.881Z,6.20
2019-05-29T03:46:05.069Z,6.20
2019-05-29T03:48:34.642Z,6.20
2019-05-29T03:51:04.195Z,6.20
2019-05-29T03:53:35.798Z,6.20
2019-05-29T03:56:05.018Z,6.20
2019-05-29T03:58:35.087Z,6.20
2019-05-29T04:01:05.437Z,6.20
2019-05-29T04:03:35.694Z,6.20
2019-05-29T04:06:06.422Z,6.20
2019-05-29T04:08:38.222Z,6.20
2019-05-29T04:11:07.379Z,6.20
2019-05-29T04:13:38.786Z,6.20
2019-05-29T04:16:10.022Z,6.20
2019-05-29T04:18:40.628Z,6.20
2019-05-29T04:21:12.023Z,6.30
2019-05-29T04:23:43.202Z,6.30
2019-05-29T04:26:16.052Z,6.30
2019-05-29T04:28:46.097Z,6.30
2019-05-29T04:31:15.841Z,6.40
2019-05-29T04:33:45.470Z,6.40
2019-05-29T04:36:16.569Z,6.50
2019-05-29T04:38:46.062Z,6.50
2019-05-29T04:41:15.522Z,6.60
2019-05-29T04:43:45.012Z,6.60
2019-05-29T04:46:14.461Z,6.60
2019-05-29T04:48:43.942Z,6.60
2019-05-29T04:51:13.548Z,6.60
2019-05-29T04:53:43.098Z,6.70
2019-05-29T04:56:12.562Z,6.70
2019-05-29T04:58:43.169Z,6.70
2019-05-29T05:01:12.623Z,6.80
2019-05-29T05:03:42.089Z,6.80
2019-05-29T05:06:11.571Z,6.90
2019-05-29T05:08:41.068Z,7.00
2019-05-29T05:11:11.225Z,7.10
2019-05-29T05:13:40.817Z,7.20
2019-05-29T05:16:10.365Z,7.30
2019-05-29T05:18:40.373Z,7.40
2019-05-29T05:21:10.561Z,7.40
2019-05-29T05:23:40.511Z,7.50
2019-05-29T05:26:12.833Z,7.60
2019-05-29T05:28:45.240Z,7.70
2019-05-29T05:31:13.688Z,7.80
2019-05-29T05:33:43.182Z,8.00
2019-05-29T05:36:12.643Z,8.10
2019-05-29T05:38:42.137Z,8.10
2019-05-29T05:41:11.631Z,8.20
2019-05-29T05:43:41.563Z,8.30
2019-05-29T05:46:12.266Z,8.50
2019-05-29T05:48:41.854Z,8.60
2019-05-29T05:51:11.472Z,8.70
2019-05-29T05:53:42.572Z,8.80
2019-05-29T05:56:12.148Z,8.90
2019-05-29T05:58:42.315Z,9.10
2019-05-29T06:01:12.251Z,9.20
2019-05-29T06:03:42.440Z,9.40
2019-05-29T06:06:12.291Z,9.50
2019-05-29T06:08:42.424Z,9.70
2019-05-29T06:11:12.247Z,9.80
2019-05-29T06:13:42.794Z,9.90
2019-05-29T06:16:12.643Z,10.00
2019-05-29T06:18:42.998Z,10.10
2019-05-29T06:21:12.729Z,10.20
2019-05-29T06:23:43.558Z,10.30
2019-05-29T06:26:14.648Z,10.40
2019-05-29T06:28:44.234Z,10.60
2019-05-29T06:31:13.785Z,10.70
2019-05-29T06:33:43.918Z,10.90
2019-05-29T06:36:14.764Z,11.00
2019-05-29T06:38:44.603Z,11.10
2019-05-29T06:41:14.853Z,11.20
2019-05-29T06:43:44.701Z,11.30
2019-05-29T06:46:14.339Z,11.40
2019-05-29T06:48:57.649Z,11.50
2019-05-29T06:51:14.887Z,11.70
2019-05-29T06:53:44.664Z,11.70
2019-05-29T06:56:14.503Z,11.80
2019-05-29T06:58:44.485Z,12.00
2019-05-29T07:01:14.986Z,12.10
2019-05-29T07:03:44.497Z,12.20
2019-05-29T07:06:14.029Z,12.30
2019-05-29T07:08:47.850Z,12.40
2019-05-29T07:11:14.750Z,12.50
2019-05-29T07:13:47.559Z,12.60
2019-05-29T07:16:15.573Z,12.80
2019-05-29T07:19:22.672Z,12.90
2019-05-29T07:21:18.451Z,13.00
2019-05-29T07:23:48.782Z,13.10
2019-05-29T07:26:18.622Z,13.20
2019-05-29T07:29:07.637Z,13.40
2019-05-29T07:31:19.595Z,13.50
2019-05-29T07:33:50.066Z,13.60
2019-05-29T07:36:19.564Z,13.70
2019-05-29T07:38:57.664Z,13.80
2019-05-29T07:41:20.112Z,13.80
2019-05-29T07:43:49.650Z,13.80
2019-05-29T07:46:19.214Z,13.90
2019-05-29T07:48:50.364Z,14.10
2019-05-29T07:51:20.197Z,14.20
2019-05-29T07:53:49.707Z,14.40
2019-05-29T07:56:22.956Z,14.50
2019-05-29T07:59:01.824Z,14.60
2019-05-29T08:01:21.743Z,14.80
2019-05-29T08:03:51.339Z,14.80
2019-05-29T08:06:20.871Z,15.00
2019-05-29T08:08:50.393Z,15.10
2019-05-29T08:11:19.879Z,15.10
2019-05-29T08:13:50.047Z,15.10
2019-05-29T08:16:19.727Z,15.20
2019-05-29T08:18:53.039Z,15.40
2019-05-29T08:21:22.031Z,15.60
2019-05-29T08:23:51.532Z,15.90
2019-05-29T08:26:21.234Z,16.00
2019-05-29T08:28:51.320Z,16.10
2019-05-29T08:31:23.544Z,16.20
2019-05-29T08:33:53.004Z,16.40
2019-05-29T08:36:22.658Z,16.50
2019-05-29T08:38:53.640Z,16.60
2019-05-29T08:41:23.154Z,16.60
2019-05-29T08:43:54.333Z,16.70
2019-05-29T08:46:24.624Z,16.80
2019-05-29T08:48:54.148Z,16.80
2019-05-29T08:51:24.386Z,16.90
2019-05-29T08:53:54.807Z,17.00
2019-05-29T08:56:24.636Z,17.10
2019-05-29T08:58:54.543Z,17.20
2019-05-29T09:01:24.079Z,17.30
2019-05-29T09:03:56.328Z,17.50
2019-05-29T09:06:25.896Z,17.60
2019-05-29T09:08:55.361Z,17.80
2019-05-29T09:11:24.835Z,17.90
2019-05-29T09:13:54.438Z,18.00
2019-05-29T09:16:25.206Z,18.10
2019-05-29T09:18:53.844Z,18.30
2019-05-29T09:21:26.503Z,18.60
2019-05-29T09:23:58.339Z,18.70
2019-05-29T09:26:26.157Z,18.60
2019-05-29T09:28:55.923Z,18.50
2019-05-29T09:31:25.369Z,18.60
2019-05-29T09:33:54.880Z,18.70
2019-05-29T09:36:24.740Z,18.80
2019-05-29T09:38:54.492Z,18.90
2019-05-29T09:41:25.463Z,19.00
2019-05-29T09:43:59.571Z,19.00
2019-05-29T09:46:26.353Z,19.00
2019-05-29T09:49:00.738Z,19.00
2019-05-29T09:51:29.479Z,19.30
2019-05-29T09:54:01.034Z,19.50
2019-05-29T09:56:31.322Z,19.70
2019-05-29T09:59:01.826Z,19.90
2019-05-29T10:01:32.066Z,19.90
2019-05-29T10:04:05.334Z,19.80
2019-05-29T10:06:53.181Z,20.00
2019-05-29T10:09:23.160Z,20.10
2019-05-29T10:11:54.659Z,20.40
2019-05-29T10:14:24.874Z,20.50
2019-05-29T10:16:58.208Z,20.50
2019-05-29T10:19:27.542Z,20.40
2019-05-29T10:21:58.457Z,20.40
2019-05-29T10:24:32.043Z,20.60
2019-05-29T10:27:01.558Z,20.90
2019-05-29T10:29:30.658Z,20.80
2019-05-29T10:32:00.121Z,20.90
2019-05-29T10:34:29.598Z,21.20
2019-05-29T10:36:59.107Z,21.20
2019-05-29T10:39:28.603Z,21.30
2019-05-29T10:41:59.471Z,21.60
2019-05-29T10:44:28.941Z,21.60
2019-05-29T10:46:58.457Z,21.80
2019-05-29T10:49:28.054Z,21.50
2019-05-29T10:52:12.826Z,21.50
2019-05-29T10:54:28.667Z,21.80
2019-05-29T10:56:58.106Z,21.80
2019-05-29T10:59:27.585Z,21.80
2019-05-29T11:01:57.005Z,22.10
2019-05-29T11:04:26.541Z,22.00
2019-05-29T11:06:56.896Z,22.00
2019-05-29T11:09:25.993Z,22.10
2019-05-29T11:11:57.363Z,22.40
2019-05-29T11:14:27.082Z,22.60
2019-05-29T11:16:57.619Z,22.50
2019-05-29T11:19:28.965Z,22.60
2019-05-29T11:22:04.545Z,22.70
2019-05-29T11:24:30.996Z,22.80
2019-05-29T11:27:00.706Z,22.80
2019-05-29T11:29:30.159Z,22.90
2019-05-29T11:31:59.724Z,23.10
2019-05-29T11:34:29.178Z,23.20
2019-05-29T11:36:58.742Z,23.20
2019-05-29T11:39:31.494Z,23.30
2019-05-29T11:42:00.997Z,23.40
2019-05-29T11:44:30.506Z,23.30
2019-05-29T11:47:00.067Z,23.30
2019-05-29T11:49:29.582Z,23.50
2019-05-29T11:52:22.898Z,23.80
2019-05-29T11:54:30.226Z,24.00
2019-05-29T11:56:59.907Z,24.10
2019-05-29T11:59:29.417Z,24.40
2019-05-29T12:02:03.153Z,24.30
2019-05-29T12:04:32.730Z,24.20
2019-05-29T12:07:02.629Z,24.40
2019-05-29T12:09:33.720Z,24.40
2019-05-29T12:12:03.531Z,24.20
2019-05-29T12:14:33.053Z,24.40
2019-05-29T12:17:03.871Z,24.40
2019-05-29T12:19:33.602Z,24.50
2019-05-29T12:22:03.124Z,24.70
2019-05-29T12:24:32.550Z,24.90
2019-05-29T12:27:02.762Z,25.10
2019-05-29T12:29:32.305Z,25.40
2019-05-29T12:32:03.800Z,25.50
2019-05-29T12:34:33.004Z,25.70
2019-05-29T12:37:03.737Z,25.60
2019-05-29T12:39:33.361Z,25.50
2019-05-29T12:42:03.757Z,25.60
2019-05-29T12:44:33.356Z,25.90
2019-05-29T12:47:04.297Z,25.90
2019-05-29T12:49:35.249Z,25.90
2019-05-29T12:52:08.123Z,26.10
2019-05-29T12:54:37.199Z,26.00
2019-05-29T12:57:06.783Z,26.10
2019-05-29T12:59:37.869Z,26.10
2019-05-29T13:02:08.190Z,26.20
2019-05-29T13:05:06.399Z,26.30
2019-05-29T13:07:08.980Z,26.00
2019-05-29T13:09:38.450Z,25.80
2019-05-29T13:12:07.985Z,25.80
2019-05-29T13:14:37.504Z,25.90
2019-05-29T13:17:07.148Z,26.00
2019-05-29T13:19:36.625Z,25.90
2019-05-29T13:22:06.575Z,25.80
2019-05-29T13:24:38.760Z,25.40
2019-05-29T13:27:08.343Z,25.10
2019-05-29T13:29:37.789Z,25.00
2019-05-29T13:32:07.646Z,25.30
2019-05-29T13:34:37.207Z,25.50
2019-05-29T13:37:09.324Z,25.60
2019-05-29T13:39:37.955Z,25.80
2019-05-29T13:42:11.691Z,25.80
2019-05-29T13:44:38.565Z,25.80
2019-05-29T13:47:08.568Z,25.80
2019-05-29T13:49:39.200Z,25.50
2019-05-29T13:52:12.224Z,25.30
2019-05-29T13:54:40.155Z,25.20
2019-05-29T13:57:09.718Z,25.20
2019-05-29T13:59:39.259Z,25.30
2019-05-29T14:02:10.836Z,25.20
2019-05-29T14:04:40.267Z,25.20
2019-05-29T14:07:09.765Z,25.10
2019-05-29T14:09:39.512Z,24.80
2019-05-29T14:12:09.515Z,24.40
2019-05-29T14:14:39.083Z,24.50
2019-05-29T14:17:08.897Z,24.70
2019-05-29T14:19:38.636Z,24.80
2019-05-29T14:22:09.234Z,25.10
2019-05-29T14:24:38.834Z,25.20
2019-05-29T14:27:09.514Z,25.50
2019-05-29T14:29:39.679Z,25.60
2019-05-29T14:32:09.376Z,25.50
2019-05-29T14:34:40.039Z,25.60
2019-05-29T14:37:09.915Z,25.60
2019-05-29T14:39:40.552Z,25.50
2019-05-29T14:42:10.255Z,25.40
2019-05-29T14:44:39.712Z,25.20
2019-05-29T14:47:10.190Z,25.10
2019-05-29T14:49:39.013Z,24.90
2019-05-29T14:52:08.719Z,24.70
2019-05-29T14:54:41.928Z,24.60
2019-05-29T14:57:24.529Z,24.10
2019-05-29T14:59:40.559Z,23.90
2019-05-29T15:02:18.935Z,23.90
2019-05-29T15:04:41.352Z,23.90
2019-05-29T15:07:12.077Z,23.90
2019-05-29T15:09:41.859Z,23.90
2019-05-29T15:12:12.116Z,24.00
2019-05-29T15:14:41.910Z,23.90
2019-05-29T15:17:13.060Z,23.90
2019-05-29T15:19:42.816Z,23.80
2019-05-29T15:22:14.219Z,23.70
2019-05-29T15:24:59.577Z,23.30
2019-05-29T15:27:16.054Z,23.10
2019-05-29T15:29:45.686Z,23.00
2019-05-29T15:32:16.541Z,22.70
2019-05-29T15:34:47.302Z,22.50
2019-05-29T15:37:18.713Z,22.40
2019-05-29T15:39:47.930Z,22.30
2019-05-29T15:42:17.495Z,22.40
2019-05-29T15:44:47.030Z,22.20
2019-05-29T15:47:17.167Z,22.20
2019-05-29T15:49:46.808Z,22.20
2019-05-29T15:52:17.425Z,22.10
2019-05-29T15:54:47.075Z,22.10
2019-05-29T15:57:18.009Z,22.10
2019-05-29T15:59:47.418Z,22.10
2019-05-29T16:02:17.976Z,22.00
2019-05-29T16:04:46.933Z,21.90
2019-05-29T16:07:16.501Z,21.90
2019-05-29T16:09:45.971Z,21.90
2019-05-29T16:12:16.680Z,21.80
2019-05-29T16:14:48.995Z,21.80
2019-05-29T16:17:19.366Z,21.70
2019-05-29T16:19:49.870Z,21.60
2019-05-29T16:22:19.338Z,21.60
2019-05-29T16:24:48.845Z,21.40
2019-05-29T16:27:18.305Z,21.40
2019-05-29T16:29:47.813Z,21.40
2019-05-29T16:32:17.836Z,21.40
2019-05-29T16:34:47.405Z,21.20
2019-05-29T16:37:17.382Z,21.00
2019-05-29T16:39:47.031Z,20.90
2019-05-29T16:42:16.498Z,20.90
2019-05-29T16:44:46.061Z,20.90
2019-05-29T16:47:16.532Z,20.90
2019-05-29T16:49:46.112Z,20.90
2019-05-29T16:52:16.723Z,20.90
2019-05-29T16:54:46.363Z,20.90
2019-05-29T16:57:17.025Z,20.90
2019-05-29T16:59:46.648Z,20.80
2019-05-29T17:02:17.622Z,20.70
2019-05-29T17:04:47.263Z,20.70
2019-05-29T17:07:17.977Z,20.70
2019-05-29T17:09:47.628Z,20.60
2019-05-29T17:12:18.159Z,20.50
2019-05-29T17:14:49.016Z,20.40
2019-05-29T17:17:18.683Z,20.40
2019-05-29T17:19:48.535Z,20.40
2019-05-29T17:22:18.900Z,20.40
2019-05-29T17:24:48.510Z,20.40
2019-05-29T17:27:18.746Z,20.40
2019-05-29T17:29:48.555Z,20.40
2019-05-29T17:32:18.867Z,20.40
2019-05-29T17:34:49.634Z,20.40
2019-05-29T17:37:19.142Z,20.30
2019-05-29T17:39:48.655Z,20.30
2019-05-29T17:42:18.487Z,20.20
2019-05-29T17:44:48.210Z,20.20
2019-05-29T17:47:19.597Z,20.10
2019-05-29T17:49:49.283Z,20.00
2019-05-29T17:52:19.777Z,19.80
2019-05-29T17:54:49.392Z,19.60
2019-05-29T17:57:19.785Z,19.60
2019-05-29T17:59:49.404Z,19.40
2019-05-29T18:02:20.100Z,19.40
2019-05-29T18:04:49.753Z,19.30
2019-05-29T18:07:20.498Z,19.30
2019-05-29T18:09:50.233Z,19.20
2019-05-29T18:12:20.870Z,19.20
2019-05-29T18:14:49.734Z,19.20
2019-05-29T18:17:19.690Z,19.20
2019-05-29T18:19:49.181Z,19.10
2019-05-29T18:22:19.565Z,19.10
2019-05-29T18:24:49.185Z,19.10
2019-05-29T18:27:20.310Z,19.10
2019-05-29T18:29:49.763Z,19.00
2019-05-29T18:32:20.258Z,18.90
2019-05-29T18:34:51.780Z,18.80
2019-05-29T18:37:20.224Z,18.80
2019-05-29T18:39:52.362Z,18.70
2019-05-29T18:42:22.475Z,18.60
2019-05-29T18:44:51.980Z,18.50
2019-05-29T18:47:22.927Z,18.40
2019-05-29T18:49:52.489Z,18.30
2019-05-29T18:52:21.983Z,18.20
2019-05-29T18:54:51.681Z,18.10
2019-05-29T18:57:21.302Z,17.90
2019-05-29T18:59:50.783Z,17.80
2019-05-29T19:02:21.287Z,17.80
2019-05-29T19:04:50.921Z,17.70
2019-05-29T19:07:21.511Z,17.70
2019-05-29T19:09:53.828Z,17.60
2019-05-29T19:12:23.706Z,17.50
2019-05-29T19:14:53.287Z,17.40
2019-05-29T19:17:23.840Z,17.40
2019-05-29T19:19:52.691Z,17.40
2019-05-29T19:22:22.293Z,17.30
2019-05-29T19:24:52.046Z,17.20
2019-05-29T19:27:31.215Z,17.10
2019-05-29T19:29:52.757Z,17.00
2019-05-29T19:32:23.332Z,16.90
2019-05-29T19:34:53.026Z,16.80
2019-05-29T19:37:23.772Z,16.70
2019-05-29T19:39:53.514Z,16.70
2019-05-29T19:42:24.294Z,16.60
2019-05-29T19:44:53.992Z,16.50
2019-05-29T19:47:24.963Z,16.40
2019-05-29T19:49:54.479Z,16.40
2019-05-29T19:52:25.682Z,16.30
2019-05-29T19:54:55.207Z,16.20
2019-05-29T19:57:25.809Z,16.20
2019-05-29T19:59:54.792Z,16.10
2019-05-29T20:02:24.304Z,16.00
2019-05-29T20:04:53.943Z,15.90
2019-05-29T20:07:23.470Z,15.90
2019-05-29T20:09:54.960Z,15.80
2019-05-29T20:12:24.061Z,15.80
2019-05-29T20:14:54.126Z,15.70
2019-05-29T20:17:23.699Z,15.70
2019-05-29T20:19:53.277Z,15.70
2019-05-29T20:22:22.843Z,15.70
2019-05-29T20:24:52.403Z,15.60
2019-05-29T20:27:21.881Z,15.70
2019-05-29T20:29:53.150Z,15.60
2019-05-29T20:32:22.671Z,15.60
2019-05-29T20:34:52.256Z,15.60
2019-05-29T20:37:21.747Z,15.70
2019-05-29T20:39:51.243Z,15.60
2019-05-29T20:42:20.723Z,15.60
2019-05-29T20:44:50.185Z,15.60
2019-05-29T20:47:19.725Z,15.60
2019-05-29T20:49:49.564Z,15.70
2019-05-29T20:52:19.079Z,15.70
2019-05-29T20:54:48.621Z,15.70
2019-05-29T20:57:19.660Z,15.70
2019-05-29T20:59:49.116Z,15.70
2019-05-29T21:02:18.597Z,15.70
2019-05-29T21:04:48.085Z,15.70
2019-05-29T21:07:17.584Z,15.80
2019-05-29T21:09:48.664Z,15.80
2019-05-29T21:12:18.045Z,15.80
2019-05-29T21:14:47.566Z,15.80
2019-05-29T21:17:17.158Z,15.80
2019-05-29T21:19:46.590Z,15.80
2019-05-29T21:22:16.127Z,15.90
2019-05-29T21:24:55.992Z,15.90
2019-05-29T21:27:16.804Z,15.90
2019-05-29T21:29:46.312Z,15.80
2019-05-29T21:32:15.778Z,15.90
2019-05-29T21:34:46.226Z,15.90
2019-05-29T21:37:15.921Z,15.90
2019-05-29T21:39:46.749Z,15.90
2019-05-29T21:42:16.256Z,15.90
2019-05-29T21:44:47.293Z,15.90
2019-05-29T21:47:18.851Z,15.90
2019-05-29T21:49:48.560Z,15.90
2019-05-29T21:52:18.500Z,15.90
2019-05-29T21:54:48.254Z,15.80
2019-05-29T21:57:17.785Z,15.80
2019-05-29T21:59:48.122Z,15.80
2019-05-29T22:02:18.844Z,15.80
2019-05-29T22:04:50.397Z,15.80
2019-05-29T22:07:20.384Z,15.80
2019-05-29T22:09:50.276Z,15.80
2019-05-29T22:12:21.410Z,15.70
2019-05-29T22:14:53.190Z,15.70
2019-05-29T22:17:22.857Z,15.70
2019-05-29T22:19:52.846Z,15.70
2019-05-29T22:22:23.772Z,15.70
2019-05-29T22:24:55.121Z,15.70
2019-05-29T22:27:24.901Z,15.70
2019-05-29T22:29:55.299Z,15.60
2019-05-29T22:32:25.030Z,15.60
2019-05-29T22:34:55.413Z,15.60
2019-05-29T22:37:25.025Z,15.60
2019-05-29T22:39:55.489Z,15.60
2019-05-29T22:42:24.967Z,15.60
2019-05-29T22:44:55.579Z,15.50
2019-05-29T22:47:25.199Z,15.50
2019-05-29T22:49:57.942Z,15.50
2019-05-29T22:52:27.577Z,15.50
2019-05-29T22:54:58.018Z,15.50
2019-05-29T22:57:27.588Z,15.50
2019-05-29T22:59:57.958Z,15.40
2019-05-29T23:02:27.441Z,15.40
2019-05-29T23:04:58.348Z,15.40
2019-05-29T23:07:28.088Z,15.40
2019-05-29T23:09:58.322Z,15.40
2019-05-29T23:12:29.067Z,15.40
2019-05-29T23:14:58.561Z,15.40
2019-05-29T23:17:28.055Z,15.40
2019-05-29T23:19:58.568Z,15.40
2019-05-29T23:22:28.147Z,15.40
2019-05-29T23:24:58.749Z,15.30
2019-05-29T23:27:28.640Z,15.30
2019-05-29T23:30:00.940Z,15.30
2019-05-29T23:32:32.150Z,15.30
2019-05-29T23:35:01.712Z,15.30
2019-05-29T23:37:31.293Z,15.20
2019-05-29T23:40:01.314Z,15.30
2019-05-29T23:42:31.041Z,15.40
2019-05-29T23:45:01.538Z,15.40
2019-05-29T23:47:32.215Z,15.30
2019-05-29T23:50:02.841Z,15.30
2019-05-29T23:52:32.905Z,15.20
2019-05-29T23:55:02.487Z,15.20
2019-05-29T23:57:32.105Z,15.20
